PWSweather.com
Personal Weather Stations
Station Observations
KCAFRAZI5
West End Drive Area, Frazier Park, CA 93225

West End Drive AreaFrazier Park, CA 93225

Lat: 34.82109, Lon: -118.96053

Elevation: 4940

Station Type: Davis Vantage Pro 2

http://www.fpweather.com

Latest ConditionsUpdated 1:30:05 PM PDT Monday, May 21, 2018
Currently Today's Max Today's Min Today's Average
Temperature 57.6°F14.2°C 58.2°F14.6°C 39.5°F4.2°C 49.3°F9.6°C
Dew Point 37.5°F3.1°C 38.5°F3.6°C 31.1°F-0.5°C 35.4°F1.9°C
Winds 12.0 mph N19.3 kmh N 12.0 mph N19.3 kmh N - 5.3 mph 8.5 kmh
Wind Gusts 12.0 mph19.3 kmh 13.0 mph20.9 kmh - -
Humidity 47% 72% 44% 59%
Pressure 29.63 in1003.4 mb 29.67 in1004.7 mb 29.60 in1002.4 mb -
Hour Temp Dew Point Humidity Winds Wind Gusts Pressure Precip Precip Rate Daily Precip Total
01:30 PM 57.6°F14.2°C 37.5°F3.1°C 47% 12.0 mph N19.3 kmh N 12.0 mph19.3 kmh 29.63 in1003.4 mb 0.00 in0.0 mm 0.00 in0.0 mm 0.00 in0.0 mm
01:15 PM 58.2°F14.6°C 36.4°F2.4°C 44% 5.0 mph NE8.0 kmh NE 10.0 mph16.1 kmh 29.65 in1004.1 mb 0.00 in0.0 mm 0.00 in0.0 mm 0.00 in0.0 mm
01:00 PM 57.6°F14.2°C 37.5°F3.1°C 47% 2.0 mph NNW3.2 kmh NNW 10.0 mph16.1 kmh 29.64 in1003.7 mb 0.00 in0.0 mm 0.00 in0.0 mm 0.00 in0.0 mm
12:45 PM 56.6°F13.7°C 37.2°F2.9°C 48% 4.0 mph N6.4 kmh N 11.0 mph17.7 kmh 29.64 in1003.7 mb 0.00 in0.0 mm 0.00 in0.0 mm 0.00 in0.0 mm
12:30 PM 57.1°F13.9°C 37.1°F2.8°C 47% 10.0 mph N16.1 kmh N 11.0 mph17.7 kmh 29.65 in1004.1 mb 0.00 in0.0 mm 0.00 in0.0 mm 0.00 in0.0 mm
12:15 PM 56.6°F13.7°C 37.7°F3.2°C 49% 5.0 mph N8.0 kmh N 12.0 mph19.3 kmh 29.65 in1004.1 mb 0.00 in0.0 mm 0.00 in0.0 mm 0.00 in0.0 mm
12:00 PM 56.5°F13.6°C 37.1°F2.8°C 48% 10.0 mph NNE16.1 kmh NNE 13.0 mph20.9 kmh 29.64 in1003.7 mb 0.00 in0.0 mm 0.00 in0.0 mm 0.00 in0.0 mm
11:45 AM 57.2°F14.0°C 37.7°F3.2°C 48% 6.0 mph N9.7 kmh N 11.0 mph17.7 kmh 29.64 in1003.7 mb 0.00 in0.0 mm 0.00 in0.0 mm 0.00 in0.0 mm
11:30 AM 57.2°F14.0°C 36.6°F2.6°C 46% 6.0 mph N9.7 kmh N 10.0 mph16.1 kmh 29.64 in1003.7 mb 0.00 in0.0 mm 0.00 in0.0 mm 0.00 in0.0 mm
11:15 AM 57.1°F13.9°C 36.5°F2.5°C 46% 7.0 mph N11.3 kmh N 10.0 mph16.1 kmh 29.65 in1004.1 mb 0.00 in0.0 mm 0.00 in0.0 mm 0.00 in0.0 mm
11:00 AM 56.3°F13.5°C 36.9°F2.7°C 48% 5.0 mph NNW8.0 kmh NNW 8.0 mph12.9 kmh 29.65 in1004.1 mb 0.00 in0.0 mm 0.00 in0.0 mm 0.00 in0.0 mm
10:45 AM 56.3°F13.5°C 38.4°F3.6°C 51% 10.0 mph N16.1 kmh N 11.0 mph17.7 kmh 29.66 in1004.4 mb 0.00 in0.0 mm 0.00 in0.0 mm 0.00 in0.0 mm
10:30 AM 55.8°F13.2°C 38.5°F3.6°C 52% 11.0 mph 17.7 kmh 12.0 mph19.3 kmh 29.64 in1003.7 mb 0.00 in0.0 mm 0.00 in0.0 mm 0.00 in0.0 mm
10:15 AM 55.9°F13.3°C 37.0°F2.8°C 49% 9.0 mph 14.5 kmh 9.0 mph14.5 kmh 29.65 in1004.1 mb 0.00 in0.0 mm 0.00 in0.0 mm 0.00 in0.0 mm
10:00 AM 53.7°F12.1°C 37.9°F3.3°C 55% 4.0 mph N6.4 kmh N 8.0 mph12.9 kmh 29.65 in1004.1 mb 0.00 in0.0 mm 0.00 in0.0 mm 0.00 in0.0 mm
09:45 AM 52.4°F11.3°C 38.1°F3.4°C 58% 5.0 mph N8.0 kmh N 8.0 mph12.9 kmh 29.66 in1004.4 mb 0.00 in0.0 mm 0.00 in0.0 mm 0.00 in0.0 mm
09:30 AM 50.7°F10.4°C 37.8°F3.2°C 61% 4.0 mph 6.4 kmh 6.0 mph9.7 kmh 29.65 in1004.1 mb 0.00 in0.0 mm 0.00 in0.0 mm 0.00 in0.0 mm
09:15 AM 50.6°F10.3°C 38.1°F3.4°C 62% 5.0 mph N8.0 kmh N 7.0 mph11.3 kmh 29.65 in1004.1 mb 0.00 in0.0 mm 0.00 in0.0 mm 0.00 in0.0 mm
09:00 AM 49.2°F9.6°C 37.6°F3.1°C 64% 4.0 mph NE6.4 kmh NE 10.0 mph16.1 kmh 29.65 in1004.1 mb 0.00 in0.0 mm 0.00 in0.0 mm 0.00 in0.0 mm
08:45 AM 47.9°F8.8°C 37.5°F3.1°C 67% 5.0 mph N8.0 kmh N 6.0 mph9.7 kmh 29.65 in1004.1 mb 0.00 in0.0 mm 0.00 in0.0 mm 0.00 in0.0 mm
08:30 AM 48.8°F9.3°C 37.6°F3.1°C 65% 5.0 mph N8.0 kmh N 6.0 mph9.7 kmh 29.64 in1003.7 mb 0.00 in0.0 mm 0.00 in0.0 mm 0.00 in0.0 mm
08:15 AM 49.8°F9.9°C 37.3°F2.9°C 62% 5.0 mph 8.0 kmh 6.0 mph9.7 kmh 29.64 in1003.7 mb 0.00 in0.0 mm 0.00 in0.0 mm 0.00 in0.0 mm
08:00 AM 49.5°F9.7°C 38.2°F3.4°C 65% 3.0 mph N4.8 kmh N 4.0 mph6.4 kmh 29.64 in1003.7 mb 0.00 in0.0 mm 0.00 in0.0 mm 0.00 in0.0 mm
07:45 AM 48.4°F9.1°C 36.8°F2.7°C 64% 3.0 mph N4.8 kmh N 4.0 mph6.4 kmh 29.65 in1004.1 mb 0.00 in0.0 mm 0.00 in0.0 mm 0.00 in0.0 mm
07:30 AM 47.2°F8.4°C 37.2°F2.9°C 68% Calm Calm 1.0 mph1.6 kmh 29.66 in1004.4 mb 0.00 in0.0 mm 0.00 in0.0 mm 0.00 in0.0 mm
07:15 AM 44.4°F6.9°C 34.1°F1.2°C 67% Calm Calm -- 29.66 in1004.4 mb 0.00 in0.0 mm 0.00 in0.0 mm 0.00 in0.0 mm
07:00 AM 42.1°F5.6°C 32.0°F0.0°C 67% 2.0 mph SE3.2 kmh SE 3.0 mph4.8 kmh 29.67 in1004.7 mb 0.00 in0.0 mm 0.00 in0.0 mm 0.00 in0.0 mm
06:45 AM 40.1°F4.5°C 31.1°F-0.5°C 70% 5.0 mph SE8.0 kmh SE 6.0 mph9.7 kmh 29.66 in1004.4 mb 0.00 in0.0 mm 0.00 in0.0 mm 0.00 in0.0 mm
06:30 AM 39.5°F4.2°C 31.2°F-0.4°C 72% 8.0 mph S12.9 kmh S 11.0 mph17.7 kmh 29.67 in1004.7 mb 0.00 in0.0 mm 0.00 in0.0 mm 0.00 in0.0 mm
06:15 AM 39.5°F4.2°C 31.2°F-0.4°C 72% 6.0 mph S9.7 kmh S 12.0 mph19.3 kmh 29.65 in1004.1 mb 0.00 in0.0 mm 0.00 in0.0 mm 0.00 in0.0 mm
06:00 AM 40.1°F4.5°C 31.8°F-0.1°C 72% 10.0 mph SSE16.1 kmh SSE 10.0 mph16.1 kmh 29.65 in1004.1 mb 0.00 in0.0 mm 0.00 in0.0 mm 0.00 in0.0 mm
05:45 AM 39.9°F4.4°C 31.3°F-0.4°C 71% 7.0 mph SE11.3 kmh SE 7.0 mph11.3 kmh 29.65 in1004.1 mb 0.00 in0.0 mm 0.00 in0.0 mm 0.00 in0.0 mm
05:30 AM 40.7°F4.8°C 31.7°F-0.2°C 70% 7.0 mph S11.3 kmh S 9.0 mph14.5 kmh 29.65 in1004.1 mb 0.00 in0.0 mm 0.00 in0.0 mm 0.00 in0.0 mm
05:15 AM 41.4°F5.2°C 32.0°F0.0°C 69% 6.0 mph SSE9.7 kmh SSE 8.0 mph12.9 kmh 29.64 in1003.7 mb 0.00 in0.0 mm 0.00 in0.0 mm 0.00 in0.0 mm
05:00 AM 41.8°F5.4°C 32.4°F0.2°C 69% 5.0 mph S8.0 kmh S 6.0 mph9.7 kmh 29.64 in1003.7 mb 0.00 in0.0 mm 0.00 in0.0 mm 0.00 in0.0 mm
04:45 AM 42.2°F5.7°C 32.8°F0.4°C 69% 7.0 mph S11.3 kmh S 10.0 mph16.1 kmh 29.65 in1004.1 mb 0.00 in0.0 mm 0.00 in0.0 mm 0.00 in0.0 mm
04:30 AM 42.2°F5.7°C 32.8°F0.4°C 69% 9.0 mph S14.5 kmh S 10.0 mph16.1 kmh 29.65 in1004.1 mb 0.00 in0.0 mm 0.00 in0.0 mm 0.00 in0.0 mm
04:15 AM 43.2°F6.2°C 33.0°F0.6°C 67% 7.0 mph SE11.3 kmh SE 7.0 mph11.3 kmh 29.63 in1003.4 mb 0.00 in0.0 mm 0.00 in0.0 mm 0.00 in0.0 mm
04:00 AM 43.5°F6.4°C 33.3°F0.7°C 67% 6.0 mph S9.7 kmh S 10.0 mph16.1 kmh 29.62 in1003.0 mb 0.00 in0.0 mm 0.00 in0.0 mm 0.00 in0.0 mm
03:45 AM 44.8°F7.1°C 34.2°F1.2°C 66% 4.0 mph SSE6.4 kmh SSE 6.0 mph9.7 kmh 29.62 in1003.0 mb 0.00 in0.0 mm 0.00 in0.0 mm 0.00 in0.0 mm
03:30 AM 46.1°F7.8°C 34.6°F1.4°C 64% 4.0 mph S6.4 kmh S 5.0 mph8.0 kmh 29.61 in1002.7 mb 0.00 in0.0 mm 0.00 in0.0 mm 0.00 in0.0 mm
03:15 AM 47.5°F8.6°C 35.1°F1.7°C 62% 5.0 mph S8.0 kmh S 5.0 mph8.0 kmh 29.61 in1002.7 mb 0.00 in0.0 mm 0.00 in0.0 mm 0.00 in0.0 mm
03:00 AM 47.9°F8.8°C 35.1°F1.7°C 61% 3.0 mph S4.8 kmh S 9.0 mph14.5 kmh 29.61 in1002.7 mb 0.00 in0.0 mm 0.00 in0.0 mm 0.00 in0.0 mm
02:45 AM 48.4°F9.1°C 35.6°F2.0°C 61% 6.0 mph SSE9.7 kmh SSE 7.0 mph11.3 kmh 29.60 in1002.4 mb 0.00 in0.0 mm 0.00 in0.0 mm 0.00 in0.0 mm
02:30 AM 49.1°F9.5°C 35.4°F1.9°C 59% 7.0 mph SSE11.3 kmh SSE 10.0 mph16.1 kmh 29.60 in1002.4 mb 0.00 in0.0 mm 0.00 in0.0 mm 0.00 in0.0 mm
02:15 AM 49.4°F9.7°C 35.3°F1.8°C 58% 5.0 mph SE8.0 kmh SE 8.0 mph12.9 kmh 29.62 in1003.0 mb 0.00 in0.0 mm 0.00 in0.0 mm 0.00 in0.0 mm
02:00 AM 49.7°F9.8°C 35.1°F1.7°C 57% 4.0 mph S6.4 kmh S 5.0 mph8.0 kmh 29.62 in1003.0 mb 0.00 in0.0 mm 0.00 in0.0 mm 0.00 in0.0 mm
01:45 AM 49.8°F9.9°C 34.8°F1.6°C 56% 3.0 mph S4.8 kmh S 6.0 mph9.7 kmh 29.63 in1003.4 mb 0.00 in0.0 mm 0.00 in0.0 mm 0.00 in0.0 mm
01:30 AM 50.0°F10.0°C 34.9°F1.6°C 56% 4.0 mph S6.4 kmh S 7.0 mph11.3 kmh 29.64 in1003.7 mb 0.00 in0.0 mm 0.00 in0.0 mm 0.00 in0.0 mm
01:15 AM 50.4°F10.2°C 34.9°F1.6°C 55% 3.0 mph SSE4.8 kmh SSE 5.0 mph8.0 kmh 29.64 in1003.7 mb 0.00 in0.0 mm 0.00 in0.0 mm 0.00 in0.0 mm
01:00 AM 50.3°F10.2°C 34.8°F1.6°C 55% 4.0 mph SSE6.4 kmh SSE 4.0 mph6.4 kmh 29.63 in1003.4 mb 0.00 in0.0 mm 0.00 in0.0 mm 0.00 in0.0 mm
12:45 AM 50.6°F10.3°C 35.5°F1.9°C 56% 2.0 mph SSE3.2 kmh SSE 4.0 mph6.4 kmh 29.63 in1003.4 mb 0.00 in0.0 mm 0.00 in0.0 mm 0.00 in0.0 mm
12:30 AM 50.7°F10.4°C 35.6°F2.0°C 56% 3.0 mph SSE4.8 kmh SSE 5.0 mph8.0 kmh 29.63 in1003.4 mb 0.00 in0.0 mm 0.00 in0.0 mm 0.00 in0.0 mm
12:15 AM 51.0°F10.6°C 35.0°F1.7°C 54% 3.0 mph SE4.8 kmh SE 4.0 mph6.4 kmh 29.64 in1003.7 mb 0.00 in0.0 mm 0.00 in0.0 mm 0.00 in0.0 mm
12:00 AM 50.7°F10.4°C 36.0°F2.2°C 57% 4.0 mph SSE6.4 kmh SSE 5.0 mph8.0 kmh 29.64 in1003.7 mb 0.00 in0.0 mm 0.00 in0.0 mm 0.00 in0.0 mm